createdAt,value
2022-08-22T00:02:45.056Z,3.22
2022-08-22T00:03:02.140Z,2.90
2022-08-22T00:03:10.728Z,2.63
2022-08-22T07:21:19.064Z,2.63
2022-08-22T07:23:50.134Z,2.78
2022-08-22T07:26:19.200Z,2.90
2022-08-22T07:28:50.822Z,2.63
2022-08-22T07:31:24.619Z,2.75
2022-08-22T07:33:51.708Z,2.80
2022-08-22T07:36:18.391Z,2.28
2022-08-22T07:38:45.213Z,2.88
2022-08-22T07:41:12.186Z,2.05
2022-08-22T07:43:38.891Z,2.40
2022-08-22T07:46:05.600Z,2.25
2022-08-22T07:48:33.534Z,2.53
2022-08-22T07:51:01.038Z,2.40
2022-08-22T07:53:28.024Z,2.65
2022-08-22T07:55:55.373Z,2.30
2022-08-22T07:58:22.410Z,2.50
2022-08-22T08:00:49.098Z,2.70
2022-08-22T08:03:16.119Z,2.33
2022-08-22T08:05:43.095Z,2.65
2022-08-22T08:08:09.760Z,2.50
2022-08-22T08:10:42.376Z,2.17
2022-08-22T08:13:09.592Z,2.67
2022-08-22T08:15:36.288Z,2.15
2022-08-22T08:18:03.894Z,2.28
2022-08-22T08:20:30.700Z,2.92
2022-08-22T08:22:57.490Z,2.33
2022-08-22T08:25:24.202Z,2.40
2022-08-22T08:28:09.804Z,2.85
2022-08-22T08:30:36.763Z,3.05
2022-08-22T08:33:26.331Z,2.55
2022-08-22T08:36:02.746Z,2.47
2022-08-22T08:38:31.324Z,2.65
2022-08-22T08:40:58.062Z,2.55
2022-08-22T08:43:28.228Z,2.17
2022-08-22T08:45:56.501Z,2.72
2022-08-22T08:48:26.037Z,2.30
2022-08-22T08:50:52.758Z,2.70
2022-08-22T08:53:19.472Z,2.63
2022-08-22T08:55:48.655Z,2.17
2022-08-22T08:58:17.735Z,2.22
2022-08-22T09:00:44.691Z,2.70
2022-08-22T09:03:11.414Z,2.30
2022-08-22T09:05:42.779Z,2.10
2022-08-22T09:08:11.762Z,1.77
2022-08-22T09:10:38.881Z,2.40
2022-08-22T09:13:12.344Z,2.28
2022-08-22T09:15:39.589Z,2.13
2022-08-22T09:18:06.735Z,2.15
2022-08-22T09:20:33.446Z,2.00
2022-08-22T09:23:00.208Z,2.40
2022-08-22T09:25:36.744Z,2.30
2022-08-22T09:28:06.829Z,1.92
2022-08-22T09:30:33.560Z,2.45
2022-08-22T09:33:00.961Z,2.30
2022-08-22T09:35:27.738Z,2.55
2022-08-22T09:37:55.116Z,2.20
2022-08-22T09:42:53.064Z,2.60
2022-08-22T09:45:22.551Z,1.88
2022-08-22T09:47:49.231Z,2.45
2022-08-22T09:50:17.039Z,2.13
2022-08-22T09:52:44.439Z,2.28
2022-08-22T09:55:11.817Z,2.30
2022-08-22T09:57:43.058Z,2.25
2022-08-22T10:00:10.753Z,2.20
2022-08-22T10:02:43.351Z,2.17
2022-08-22T10:05:10.573Z,2.03
2022-08-22T10:07:38.984Z,2.15
2022-08-22T10:10:06.188Z,2.00
2022-08-22T10:12:36.295Z,2.03
2022-08-22T10:15:04.210Z,1.83
2022-08-22T10:17:34.111Z,1.73
2022-08-22T10:20:07.728Z,1.77
2022-08-22T10:22:36.604Z,1.50
2022-08-22T10:25:03.317Z,1.23
2022-08-22T10:27:31.606Z,1.60
2022-08-22T10:29:58.677Z,1.52
2022-08-22T10:32:27.173Z,1.48
2022-08-22T10:34:53.956Z,1.23
2022-08-22T10:37:23.837Z,1.85
2022-08-22T10:39:50.817Z,1.30
2022-08-22T10:42:19.296Z,1.67
2022-08-22T10:44:50.113Z,1.58
2022-08-22T10:47:19.036Z,1.88
2022-08-22T10:49:45.926Z,1.50
2022-08-22T10:52:17.925Z,1.20
2022-08-22T10:54:45.759Z,1.25
2022-08-22T10:57:12.537Z,1.30
2022-08-22T10:59:39.870Z,1.60
2022-08-22T11:02:06.703Z,1.48
2022-08-22T11:04:34.963Z,1.38
2022-08-22T11:07:01.904Z,1.30
2022-08-22T11:09:29.649Z,1.45
2022-08-22T11:11:58.965Z,1.50
2022-08-22T11:14:25.933Z,1.40
2022-08-22T11:16:55.306Z,1.45
2022-08-22T11:19:22.903Z,1.10
2022-08-22T11:21:50.930Z,1.15
2022-08-22T11:24:30.028Z,1.00
2022-08-22T11:27:02.210Z,1.02
2022-08-22T11:29:34.072Z,1.00
2022-08-22T11:32:05.726Z,1.25
2022-08-22T11:34:34.675Z,1.00
2022-08-22T11:37:01.418Z,1.08
2022-08-22T11:39:28.120Z,1.25
2022-08-22T11:41:54.962Z,1.30
2022-08-22T11:44:21.692Z,1.10
2022-08-22T11:46:52.398Z,1.23
2022-08-22T11:49:26.931Z,1.42
2022-08-22T11:51:55.387Z,1.30
2022-08-22T11:54:22.242Z,1.20
2022-08-22T11:56:58.022Z,1.05
2022-08-22T11:59:24.786Z,1.33
2022-08-22T12:01:52.849Z,1.48
2022-08-22T12:04:19.770Z,1.50
2022-08-22T12:06:46.789Z,1.20
2022-08-22T12:09:13.655Z,1.30
2022-08-22T12:11:40.360Z,2.22
2022-08-22T12:14:08.523Z,1.92
2022-08-22T12:16:35.255Z,1.60
2022-08-22T12:19:02.007Z,1.85
2022-08-22T12:21:29.517Z,1.60
2022-08-22T12:23:57.208Z,1.48
2022-08-22T12:26:24.185Z,1.65
2022-08-22T12:28:50.928Z,2.20
2022-08-22T12:31:18.233Z,1.70
2022-08-22T12:33:45.076Z,1.40
2022-08-22T12:36:18.461Z,1.35
2022-08-22T12:38:45.492Z,1.73
2022-08-22T12:41:12.197Z,2.38
2022-08-22T12:43:42.343Z,1.83
2022-08-22T12:46:13.060Z,1.58
2022-08-22T12:48:40.211Z,1.42
2022-08-22T12:51:17.336Z,1.58
2022-08-22T12:53:44.544Z,1.45
2022-08-22T12:56:12.072Z,1.77
2022-08-22T12:58:39.978Z,1.20
2022-08-22T13:01:06.741Z,1.17
2022-08-22T13:03:33.526Z,1.10
2022-08-22T13:06:00.814Z,1.30
2022-08-22T13:08:37.955Z,1.10
2022-08-22T13:11:04.893Z,1.35
2022-08-22T13:13:44.273Z,1.20
2022-08-22T13:16:23.147Z,1.35
2022-08-22T13:18:53.663Z,1.05
2022-08-22T13:21:20.713Z,1.27
2022-08-22T13:23:50.784Z,1.25
2022-08-22T13:26:33.688Z,1.10
2022-08-22T13:29:24.684Z,1.10
2022-08-22T13:31:51.395Z,1.20
2022-08-22T13:34:19.566Z,1.20
2022-08-22T13:36:51.933Z,1.27
2022-08-22T13:39:19.704Z,1.27
2022-08-22T13:41:46.503Z,1.55
2022-08-22T13:44:15.348Z,1.08
2022-08-22T13:47:10.804Z,0.90
2022-08-22T13:49:29.072Z,1.70
2022-08-22T13:51:55.880Z,1.40
2022-08-22T13:54:22.639Z,1.23
2022-08-22T13:56:50.696Z,1.20
2022-08-22T13:59:40.094Z,1.30
2022-08-22T14:02:04.531Z,1.15
2022-08-22T14:04:35.832Z,1.08
2022-08-22T14:07:06.147Z,1.67
2022-08-22T14:09:32.987Z,1.40
2022-08-22T14:11:59.708Z,1.80
2022-08-22T14:14:26.530Z,1.70
2022-08-22T14:16:53.604Z,1.63
2022-08-22T14:19:20.338Z,2.22
2022-08-22T14:21:48.337Z,1.80
2022-08-22T14:24:16.197Z,1.60
2022-08-22T14:26:47.413Z,1.90
2022-08-22T14:29:14.819Z,1.65
2022-08-22T14:31:42.024Z,1.60
2022-08-22T14:34:10.536Z,1.88
2022-08-22T14:36:37.472Z,1.80
2022-08-22T14:39:04.264Z,1.90
2022-08-22T14:41:52.411Z,1.75
2022-08-22T14:44:17.819Z,2.05
2022-08-22T14:46:44.901Z,1.80
2022-08-22T14:49:11.964Z,2.10
2022-08-22T14:51:39.817Z,1.50
2022-08-22T14:54:07.504Z,1.75
2022-08-22T14:56:41.162Z,1.83
2022-08-22T14:59:08.285Z,1.80
2022-08-22T15:01:35.215Z,1.83
2022-08-22T15:04:04.221Z,1.83
2022-08-22T15:06:30.990Z,1.60
2022-08-22T15:09:00.104Z,1.70
2022-08-22T15:11:31.820Z,1.50
2022-08-22T15:13:58.973Z,1.27
2022-08-22T15:16:26.743Z,1.23
2022-08-22T15:18:53.656Z,1.48
2022-08-22T15:21:21.074Z,1.30
2022-08-22T15:23:51.394Z,1.40
2022-08-22T15:26:18.129Z,1.52
2022-08-22T15:28:52.726Z,1.60
2022-08-22T15:31:20.178Z,1.58
2022-08-22T15:33:47.400Z,1.30
2022-08-22T15:36:15.861Z,1.50
2022-08-22T15:38:44.419Z,1.50
2022-08-22T15:41:15.242Z,1.48
2022-08-22T15:43:41.999Z,1.65
2022-08-22T15:46:09.898Z,1.00
2022-08-22T15:48:49.258Z,1.20
2022-08-22T15:51:19.278Z,1.15
2022-08-22T15:53:48.552Z,1.60
2022-08-22T15:56:17.760Z,1.50
2022-08-22T15:58:48.890Z,1.63
2022-08-22T16:01:20.521Z,1.27
2022-08-22T16:03:49.058Z,1.45
2022-08-22T16:06:15.876Z,1.50
2022-08-22T16:08:44.537Z,1.70
2022-08-22T16:11:11.304Z,1.70
2022-08-22T16:13:38.452Z,1.25
2022-08-22T16:16:05.459Z,1.33
2022-08-22T16:18:32.203Z,1.58
2022-08-22T16:20:59.267Z,1.45
2022-08-22T16:23:26.079Z,1.83
2022-08-22T16:25:53.034Z,1.50
2022-08-22T16:28:23.186Z,1.00
2022-08-22T16:30:58.570Z,1.20
2022-08-22T16:33:25.370Z,1.60
2022-08-22T16:35:52.199Z,1.20
2022-08-22T16:38:18.952Z,1.48
2022-08-22T16:40:46.153Z,0.93
2022-08-22T16:43:13.193Z,1.00
2022-08-22T16:45:40.037Z,1.08
2022-08-22T16:48:07.509Z,1.00
2022-08-22T16:50:34.357Z,1.60
2022-08-22T16:53:01.221Z,1.45
2022-08-22T16:55:27.993Z,2.28
2022-08-22T16:58:06.017Z,1.20
2022-08-22T17:00:33.144Z,1.35
2022-08-22T17:02:59.876Z,1.35
2022-08-22T17:05:29.825Z,1.73
2022-08-22T17:07:57.295Z,1.23
2022-08-22T17:10:24.049Z,1.30
2022-08-22T17:12:50.824Z,1.10
2022-08-22T17:15:17.778Z,1.05
2022-08-22T17:17:45.179Z,1.25
2022-08-22T17:20:12.072Z,1.30
2022-08-22T17:22:38.849Z,1.25
2022-08-22T17:25:05.716Z,1.20
2022-08-22T17:27:32.761Z,1.35
2022-08-22T17:29:59.517Z,1.10
2022-08-22T17:32:26.324Z,1.08
2022-08-22T17:34:53.083Z,1.10
2022-08-22T17:37:21.640Z,1.50
2022-08-22T17:39:50.841Z,1.50
2022-08-22T17:42:21.246Z,1.40
2022-08-22T17:44:48.229Z,2.05
2022-08-22T17:47:16.087Z,2.97
2022-08-22T17:49:45.244Z,4.13
2022-08-22T17:52:12.705Z,1.60
2022-08-22T17:54:40.506Z,1.38
2022-08-22T17:57:07.415Z,1.10
2022-08-22T17:59:34.227Z,1.40
2022-08-22T18:02:01.027Z,1.33
2022-08-22T18:04:27.828Z,1.30
2022-08-22T18:06:56.283Z,1.10
2022-08-22T18:09:23.249Z,1.10
2022-08-22T18:11:50.107Z,1.55
2022-08-22T18:14:16.881Z,1.30
2022-08-22T18:16:43.715Z,1.88
2022-08-22T18:19:10.523Z,1.40
2022-08-22T18:21:37.333Z,1.20
2022-08-22T18:24:04.272Z,1.77
2022-08-22T18:26:31.095Z,1.00
2022-08-22T18:28:57.885Z,1.02
2022-08-22T18:31:24.708Z,1.20
2022-08-22T18:33:51.548Z,1.30
2022-08-22T18:36:20.070Z,1.13
2022-08-22T18:38:47.410Z,1.20
2022-08-22T18:41:14.651Z,1.00
2022-08-22T18:43:41.556Z,1.13
2022-08-22T18:46:08.370Z,0.85
2022-08-22T18:48:35.695Z,0.93
2022-08-22T18:51:02.426Z,1.23
2022-08-22T18:53:29.275Z,1.38
2022-08-22T18:55:56.304Z,1.27
2022-08-22T18:58:23.094Z,1.20
2022-08-22T19:00:49.932Z,1.50
2022-08-22T19:03:16.698Z,1.23
2022-08-22T19:05:43.693Z,1.45
2022-08-22T19:08:10.473Z,1.60
2022-08-22T19:10:37.244Z,1.20
2022-08-22T19:13:04.194Z,1.30
2022-08-22T19:15:30.990Z,1.00
2022-08-22T19:17:59.161Z,1.35
2022-08-22T19:20:44.960Z,1.05
2022-08-22T19:23:11.781Z,1.38
2022-08-22T19:25:38.533Z,1.30
2022-08-22T19:28:05.277Z,1.10
2022-08-22T19:30:32.119Z,1.13
2022-08-22T19:32:59.499Z,1.00
2022-08-22T19:35:26.445Z,1.08
2022-08-22T19:37:53.607Z,1.13
2022-08-22T19:40:20.427Z,1.00
2022-08-22T19:42:49.965Z,1.10
2022-08-22T19:45:16.758Z,0.90
2022-08-22T19:47:43.603Z,0.80
2022-08-22T19:50:10.457Z,0.80
2022-08-22T19:52:37.754Z,0.88
2022-08-22T19:55:04.557Z,0.88
2022-08-22T19:57:31.345Z,0.63
2022-08-22T20:00:00.384Z,0.70
2022-08-22T20:02:27.317Z,0.68
2022-08-22T20:04:55.217Z,0.60
2022-08-22T20:07:22.727Z,0.90
2022-08-22T20:09:49.457Z,0.70
2022-08-22T20:12:16.452Z,0.57
2022-08-22T20:14:43.155Z,0.73
2022-08-22T20:17:10.135Z,0.80
2022-08-22T20:19:37.006Z,1.00
2022-08-22T20:22:03.854Z,0.90
2022-08-22T20:24:30.721Z,0.80
2022-08-22T20:27:13.262Z,0.93
2022-08-22T20:29:40.448Z,0.82
2022-08-22T20:32:07.212Z,1.05
2022-08-22T20:34:33.954Z,0.85
2022-08-22T20:37:25.306Z,1.05
2022-08-22T20:39:47.513Z,1.05
2022-08-22T20:42:25.707Z,1.00
2022-08-22T20:44:53.728Z,0.90
2022-08-22T20:47:22.340Z,1.42
2022-08-22T20:49:49.180Z,1.20
2022-08-22T20:52:15.926Z,1.30
2022-08-22T20:54:43.431Z,1.23
2022-08-22T20:57:10.095Z,1.20
2022-08-22T20:59:37.105Z,1.60
2022-08-22T21:02:03.870Z,1.67
2022-08-22T21:04:30.587Z,1.40
2022-08-22T21:06:57.326Z,1.40
2022-08-22T21:09:42.623Z,1.70
2022-08-22T21:12:09.669Z,1.77
2022-08-22T21:14:37.600Z,1.60
2022-08-22T21:17:04.346Z,1.50
2022-08-22T21:19:31.066Z,1.60
2022-08-22T21:21:57.820Z,1.42
2022-08-22T21:24:24.688Z,1.88
2022-08-22T21:26:51.406Z,1.75
2022-08-22T21:29:18.129Z,1.60
2022-08-22T21:31:45.090Z,1.60
2022-08-22T21:34:11.791Z,1.90
2022-08-22T21:36:38.550Z,1.50
2022-08-22T21:39:05.293Z,1.73
2022-08-22T21:41:32.033Z,1.58
2022-08-22T21:43:59.092Z,1.70
2022-08-22T21:46:25.895Z,1.67
2022-08-22T21:48:52.614Z,1.50
